Time;durP1;ratioP1;P1;durP2;ratioP2;P2;SDS_P1;SDS_P2;PMS_P1;PMS_P2;Temp;Humidity;BMP_temperature;BMP_pressure;BME280_temperature;BME280_humidity;BME280_pressure;Samples;Min_cycle;Max_cycle;Signal;HPM_P1;HPM_P2
2021/03/06 00:00:33;;;;;;;3.47;2.25;;;-5.10;78.40;;;;;;4389662;32;20068;-58
2021/03/06 00:03:00;;;;;;;2.45;2.00;;;-5.00;78.10;;;;;;4388853;32;20441;-57
2021/03/06 00:05:27;;;;;;;3.67;2.17;;;-5.10;77.70;;;;;;4377193;32;20078;-58
2021/03/06 00:07:53;;;;;;;2.80;2.12;;;-5.10;77.90;;;;;;4376842;32;20074;-57
2021/03/06 00:10:19;;;;;;;2.72;2.08;;;-5.20;78.10;;;;;;4376648;32;20150;-58
2021/03/06 00:12:47;;;;;;;3.22;2.30;;;-5.20;77.80;;;;;;4389601;32;20054;-58
2021/03/06 00:15:25;;;;;;;3.97;2.35;;;-5.20;77.40;;;;;;4390505;32;20225;-58
2021/03/06 00:17:51;;;;;;;2.30;2.05;;;-5.10;77.20;;;;;;4390995;32;20169;-58
2021/03/06 00:20:18;;;;;;;3.08;2.30;;;-5.20;77.50;;;;;;4379944;32;20070;-58
2021/03/06 00:22:45;;;;;;;2.58;2.15;;;-5.30;77.60;;;;;;4379907;32;20149;-58
2021/03/06 00:25:13;;;;;;;2.83;2.00;;;-5.40;77.80;;;;;;4379400;32;20501;-58
2021/03/06 00:27:39;;;;;;;2.53;2.00;;;-5.30;77.50;;;;;;4383420;32;20092;-58
2021/03/06 00:30:11;;;;;;;5.03;2.35;;;-5.40;77.60;;;;;;4378005;32;20077;-57
2021/03/06 00:32:37;;;;;;;3.28;2.47;;;-5.40;77.70;;;;;;4367912;32;20583;-58
2021/03/06 00:35:05;;;;;;;3.40;2.30;;;-5.50;77.70;;;;;;4340169;32;20074;-58
2021/03/06 00:37:31;;;;;;;3.70;2.40;;;-5.60;77.50;;;;;;4364257;32;20449;-58
2021/03/06 00:39:57;;;;;;;3.87;2.20;;;-5.80;78.30;;;;;;4364308;32;20137;-57
2021/03/06 00:42:23;;;;;;;3.45;2.47;;;-5.90;78.80;;;;;;4364007;32;20085;-61
2021/03/06 00:44:50;;;;;;;2.78;2.12;;;-5.90;79.00;;;;;;4376398;32;20430;-59
2021/03/06 00:47:16;;;;;;;4.47;2.67;;;-5.80;78.60;;;;;;4378676;32;20157;-58
2021/03/06 00:49:42;;;;;;;4.32;2.45;;;-6.00;78.80;;;;;;4394968;32;20145;-57
2021/03/06 00:52:08;;;;;;;3.42;2.40;;;-5.90;78.90;;;;;;4376636;32;20069;-59
2021/03/06 00:54:34;;;;;;;3.12;2.42;;;-6.00;78.80;;;;;;4363891;32;20074;-57
2021/03/06 00:57:01;;;;;;;3.15;2.37;;;-6.10;78.90;;;;;;4363944;32;20148;-60
2021/03/06 00:59:27;;;;;;;2.83;2.10;;;-6.10;79.10;;;;;;4377955;32;20140;-58
2021/03/06 01:01:53;;;;;;;3.45;2.50;;;-6.20;79.90;;;;;;4389100;32;20239;-57
2021/03/06 01:04:19;;;;;;;3.42;2.37;;;-6.10;79.80;;;;;;4378101;32;20066;-58
2021/03/06 01:06:45;;;;;;;3.47;2.42;;;-5.90;78.70;;;;;;4390934;32;20178;-58
2021/03/06 01:09:12;;;;;;;5.55;2.60;;;-6.00;78.40;;;;;;4379149;32;20082;-59
2021/03/06 01:11:38;;;;;;;3.58;2.30;;;-5.90;78.60;;;;;;4393153;32;20141;-58
2021/03/06 01:14:04;;;;;;;3.97;2.53;;;-5.90;78.30;;;;;;4392634;32;20062;-59
2021/03/06 01:16:31;;;;;;;4.35;2.60;;;-6.00;78.30;;;;;;4391380;32;20149;-57
2021/03/06 01:18:57;;;;;;;3.12;2.30;;;-6.00;78.50;;;;;;4353963;32;20081;-57
2021/03/06 01:21:23;;;;;;;3.67;2.28;;;-6.00;78.60;;;;;;4376740;32;20067;-57
2021/03/06 01:23:50;;;;;;;3.62;2.75;;;-6.00;78.80;;;;;;4376839;32;20146;-58
2021/03/06 01:26:16;;;;;;;3.33;2.50;;;-6.00;78.70;;;;;;4353199;32;20459;-57
2021/03/06 01:28:42;;;;;;;3.53;2.33;;;-6.20;79.50;;;;;;4379041;32;20066;-57
2021/03/06 01:31:08;;;;;;;4.18;2.50;;;-6.40;79.80;;;;;;4363544;32;20090;-58
2021/03/06 01:33:35;;;;;;;4.45;2.60;;;-6.40;80.40;;;;;;4364749;32;20158;-58
2021/03/06 01:36:01;;;;;;;4.15;2.47;;;-6.30;82.10;;;;;;4375795;32;20166;-57
2021/03/06 01:38:27;;;;;;;2.80;2.47;;;-6.30;80.60;;;;;;4386505;32;20089;-57
2021/03/06 01:40:53;;;;;;;3.42;2.33;;;-6.30;80.60;;;;;;4377219;32;20089;-58
2021/03/06 01:43:21;;;;;;;4.05;2.22;;;-6.30;80.00;;;;;;4375816;32;20476;-57
2021/03/06 01:45:47;;;;;;;2.45;2.10;;;-6.30;80.30;;;;;;4363812;32;20162;-59
2021/03/06 01:48:13;;;;;;;5.03;2.92;;;-6.40;80.20;;;;;;4363652;32;20494;-62
2021/03/06 01:50:42;;;;;;;2.87;2.45;;;-6.30;80.50;;;;;;4363507;32;20067;-58
2021/03/06 01:53:10;;;;;;;3.75;2.60;;;-6.40;80.80;;;;;;4363434;32;20082;-60
2021/03/06 01:55:39;;;;;;;3.12;2.22;;;-6.20;80.70;;;;;;4363436;32;20057;-57
2021/03/06 01:58:05;;;;;;;4.40;2.50;;;-6.30;79.90;;;;;;4363368;32;20081;-57
2021/03/06 02:00:32;;;;;;;3.05;2.15;;;-6.40;80.60;;;;;;4364136;32;20097;-58
2021/03/06 02:02:59;;;;;;;3.83;2.67;;;-6.50;81.20;;;;;;4371338;32;20098;-63
2021/03/06 02:05:26;;;;;;;2.75;2.17;;;-6.40;79.80;;;;;;4338574;32;20553;-58
2021/03/06 02:07:52;;;;;;;3.53;2.47;;;-6.40;81.00;;;;;;4350843;32;20077;-57
2021/03/06 02:10:45;;;;;;;3.17;2.25;;;-6.20;80.60;;;;;;4369066;32;20062;-58
2021/03/06 02:13:26;;;;;;;3.22;2.40;;;-6.10;79.60;;;;;;4372897;32;20061;-59
2021/03/06 02:16:20;;;;;;;3.30;2.15;;;-6.30;80.70;;;;;;4368850;32;20487;-58
2021/03/06 02:19:25;;;;;;;4.10;2.35;;;-6.20;80.40;;;;;;4376140;32;20162;-57
2021/03/06 02:22:24;;;;;;;3.78;2.50;;;-6.40;80.80;;;;;;4376333;32;20081;-58
2021/03/06 02:25:12;;;;;;;3.42;2.50;;;-6.40;81.50;;;;;;4375483;32;20151;-58
2021/03/06 02:27:50;;;;;;;4.47;2.25;;;-6.50;81.20;;;;;;4368422;32;20084;-57
2021/03/06 02:30:17;;;;;;;3.85;2.45;;;-6.50;81.50;;;;;;4362862;32;20075;-57
2021/03/06 02:32:45;;;;;;;2.92;2.22;;;-6.60;81.90;;;;;;4351851;32;20093;-58
2021/03/06 02:35:18;;;;;;;3.53;2.33;;;-6.70;82.20;;;;;;4375570;32;20102;-58
2021/03/06 02:38:10;;;;;;;3.42;2.25;;;-6.60;82.20;;;;;;4343914;32;20155;-58
2021/03/06 02:40:37;;;;;;;3.97;2.45;;;-6.60;82.20;;;;;;4357273;32;20527;-58
2021/03/06 02:43:05;;;;;;;3.10;2.28;;;-6.50;82.30;;;;;;4375305;32;20162;-58
2021/03/06 02:45:31;;;;;;;2.72;2.30;;;-6.50;81.90;;;;;;4349945;32;20070;-58
2021/03/06 02:47:57;;;;;;;3.37;2.22;;;-6.40;82.10;;;;;;4374520;32;20065;-58
2021/03/06 02:50:24;;;;;;;3.58;2.30;;;-6.50;82.20;;;;;;4361023;32;20078;-58
2021/03/06 02:52:50;;;;;;;3.97;2.50;;;-6.60;82.30;;;;;;4350124;32;20186;-62
2021/03/06 02:55:17;;;;;;;3.62;2.53;;;-6.60;82.30;;;;;;4362502;32;20498;-58
2021/03/06 02:58:24;;;;;;;3.55;2.42;;;-6.70;82.50;;;;;;4386194;32;20083;-60
2021/03/06 03:00:59;;;;;;;5.03;2.72;;;-6.60;82.90;;;;;;4390015;32;20070;-58
2021/03/06 03:03:35;;;;;;;4.15;2.47;;;-6.70;83.10;;;;;;4390535;32;20150;-58
2021/03/06 03:06:28;;;;;;;4.32;2.72;;;-6.80;83.20;;;;;;4378038;32;20153;-57
2021/03/06 03:09:17;;;;;;;4.32;2.72;;;-6.80;83.30;;;;;;4390230;32;20089;-57
2021/03/06 03:12:06;;;;;;;3.12;2.50;;;-6.90;83.10;;;;;;4389507;32;20137;-58
2021/03/06 03:14:47;;;;;;;4.65;2.40;;;-6.80;83.60;;;;;;4389447;32;20066;-58
2021/03/06 03:17:44;;;;;;;3.53;2.40;;;-6.70;83.70;;;;;;4378606;32;20146;-58
2021/03/06 03:20:48;;;;;;;3.28;2.25;;;-6.80;83.70;;;;;;4376988;32;20064;-57
2021/03/06 03:23:16;;;;;;;3.65;2.50;;;-6.80;83.10;;;;;;4377095;32;20074;-58
2021/03/06 03:25:43;;;;;;;4.22;2.20;;;-6.80;84.10;;;;;;4377552;32;20080;-57
2021/03/06 03:28:10;;;;;;;3.75;2.60;;;-6.70;83.90;;;;;;4340982;32;20155;-57
2021/03/06 03:30:37;;;;;;;3.45;2.45;;;-6.80;83.90;;;;;;4337644;32;20449;-58
2021/03/06 03:33:07;;;;;;;4.87;2.67;;;-6.90;84.00;;;;;;4364176;32;20078;-57
2021/03/06 03:35:34;;;;;;;3.97;2.50;;;-6.90;84.40;;;;;;4362262;32;20169;-58
2021/03/06 03:38:00;;;;;;;3.60;2.28;;;-7.00;84.10;;;;;;4356950;32;20129;-58
2021/03/06 03:40:27;;;;;;;4.03;2.50;;;-7.00;84.70;;;;;;4350326;32;20085;-57
2021/03/06 03:42:53;;;;;;;4.47;2.70;;;-6.90;84.40;;;;;;4362845;32;20147;-57
2021/03/06 03:45:20;;;;;;;3.45;2.28;;;-6.90;84.30;;;;;;4375681;32;20077;-58
2021/03/06 03:47:47;;;;;;;4.12;2.70;;;-6.90;84.20;;;;;;4363709;32;20067;-58
2021/03/06 03:50:15;;;;;;;3.95;2.62;;;-7.00;84.30;;;;;;4376348;32;20483;-59
2021/03/06 03:52:48;;;;;;;3.50;2.35;;;-7.00;84.40;;;;;;4377544;32;20064;-58
2021/03/06 03:55:14;;;;;;;2.72;2.17;;;-7.00;84.50;;;;;;4365641;32;20089;-58
2021/03/06 03:57:44;;;;;;;3.95;2.60;;;-7.00;84.50;;;;;;4376488;32;20511;-57
2021/03/06 04:00:13;;;;;;;3.28;2.35;;;-7.00;84.70;;;;;;4377172;32;20051;-58
2021/03/06 04:02:39;;;;;;;3.22;2.30;;;-7.10;85.00;;;;;;4367319;32;20078;-58
2021/03/06 04:05:07;;;;;;;5.15;2.50;;;-7.00;85.10;;;;;;4392332;32;20073;-58
2021/03/06 04:07:52;;;;;;;3.37;2.33;;;-7.00;84.70;;;;;;4391810;32;20153;-58
2021/03/06 04:10:20;;;;;;;5.70;2.58;;;-7.10;85.20;;;;;;4380131;32;20086;-58
2021/03/06 04:12:47;;;;;;;4.28;2.53;;;-7.00;84.60;;;;;;4380010;32;20082;-58
2021/03/06 04:15:14;;;;;;;4.57;3.10;;;-7.10;84.50;;;;;;4392466;32;20107;-58
2021/03/06 04:17:41;;;;;;;6.00;2.80;;;-7.20;85.10;;;;;;4391816;32;20074;-58
2021/03/06 04:20:10;;;;;;;4.97;3.30;;;-7.20;85.20;;;;;;4379530;32;20267;-58
2021/03/06 04:22:36;;;;;;;4.97;3.25;;;-7.20;85.40;;;;;;4379792;32;20077;-59
2021/03/06 04:25:04;;;;;;;6.53;3.40;;;-7.20;85.30;;;;;;4379303;32;20075;-57
2021/03/06 04:27:30;;;;;;;5.10;3.15;;;-7.20;85.20;;;;;;4376389;32;20086;-58
2021/03/06 04:29:56;;;;;;;4.62;2.75;;;-7.20;85.40;;;;;;4356376;32;20070;-58
2021/03/06 04:32:23;;;;;;;4.57;3.25;;;-7.10;85.10;;;;;;4385902;32;20070;-58
2021/03/06 04:34:49;;;;;;;7.55;4.55;;;-7.10;85.10;;;;;;4378303;32;20151;-58
2021/03/06 04:37:15;;;;;;;6.47;3.58;;;-7.00;85.60;;;;;;4379861;32;20084;-58
2021/03/06 04:39:41;;;;;;;5.93;3.28;;;-7.00;85.10;;;;;;4364343;32;20086;-58
2021/03/06 04:42:08;;;;;;;4.90;3.10;;;-6.90;85.20;;;;;;4351600;32;20454;-59
2021/03/06 04:44:34;;;;;;;4.80;3.12;;;-6.90;85.00;;;;;;4339521;32;20066;-62
2021/03/06 04:47:03;;;;;;;4.80;3.47;;;-7.00;84.90;;;;;;4339458;32;20085;-58
2021/03/06 04:49:30;;;;;;;5.15;3.37;;;-7.00;85.20;;;;;;4381981;32;20070;-57
2021/03/06 04:51:57;;;;;;;6.62;3.03;;;-7.10;85.10;;;;;;4364516;32;20149;-58
2021/03/06 04:54:23;;;;;;;5.25;3.47;;;-7.10;85.30;;;;;;4376534;32;20120;-59
2021/03/06 04:56:50;;;;;;;5.37;3.20;;;-7.10;85.50;;;;;;4376164;32;20066;-58
2021/03/06 04:59:17;;;;;;;4.53;3.15;;;-7.00;85.10;;;;;;4364297;32;20081;-60
2021/03/06 05:01:43;;;;;;;4.57;3.10;;;-7.10;84.90;;;;;;4377097;32;20070;-60
2021/03/06 05:04:10;;;;;;;4.43;2.90;;;-7.10;85.10;;;;;;4394024;32;20153;-59
2021/03/06 05:06:36;;;;;;;4.10;3.00;;;-7.10;85.40;;;;;;4384768;32;20074;-58
2021/03/06 05:09:04;;;;;;;4.15;2.90;;;-7.00;84.90;;;;;;4378903;32;20084;-57
2021/03/06 05:11:30;;;;;;;4.45;2.75;;;-7.00;84.80;;;;;;4380410;32;20492;-58
2021/03/06 05:13:56;;;;;;;4.05;2.70;;;-7.10;85.30;;;;;;4394907;32;20085;-58
2021/03/06 05:16:23;;;;;;;3.45;2.60;;;-7.10;85.60;;;;;;4399306;32;20078;-59
2021/03/06 05:18:49;;;;;;;3.95;2.65;;;-5.90;83.30;;;;;;4379501;32;20501;-59
2021/03/06 05:21:15;;;;;;;6.00;3.50;;;-3.90;73.90;;;;;;4379132;32;20066;-58
2021/03/06 05:23:41;;;;;;;5.37;3.42;;;-3.70;69.50;;;;;;4365129;32;20510;-60
2021/03/06 05:26:07;;;;;;;4.18;3.10;;;-3.90;68.20;;;;;;4378176;32;20088;-59
2021/03/06 05:28:33;;;;;;;4.70;3.20;;;-3.50;69.40;;;;;;4388115;32;20508;-59
2021/03/06 05:31:00;;;;;;;8.90;4.25;;;-3.20;67.50;;;;;;4378156;32;20061;-59
2021/03/06 05:35:27;;;;;;;9.63;4.75;;;-3.40;68.60;;;;;;3831977;37;20059;-59
2021/03/06 05:37:53;;;;;;;14.05;5.72;;;-3.10;66.40;;;;;;4375728;32;20159;-58
2021/03/06 05:40:20;;;;;;;15.57;7.10;;;-3.20;66.50;;;;;;4375341;32;20500;-57
2021/03/06 05:42:46;;;;;;;10.15;4.53;;;-3.60;66.90;;;;;;4362832;32;20165;-58
2021/03/06 05:45:12;;;;;;;8.98;3.55;;;-3.90;69.70;;;;;;4375014;32;20425;-58
2021/03/06 05:47:39;;;;;;;7.50;3.90;;;-3.50;69.30;;;;;;4374688;32;20511;-58
2021/03/06 05:50:06;;;;;;;7.50;3.80;;;-3.70;70.50;;;;;;4383980;32;20472;-59
2021/03/06 05:52:32;;;;;;;5.10;3.20;;;-3.50;68.30;;;;;;4362591;32;20130;-59
2021/03/06 05:55:01;;;;;;;5.22;2.90;;;-2.90;67.10;;;;;;4363025;32;20159;-58
2021/03/06 05:57:27;;;;;;;6.15;3.20;;;-3.30;66.20;;;;;;4363160;32;20161;-58
2021/03/06 05:59:54;;;;;;;6.32;3.40;;;-2.80;66.60;;;;;;4369229;32;20078;-58
2021/03/06 06:02:22;;;;;;;4.65;3.00;;;-3.30;66.80;;;;;;4350845;32;20181;-58
2021/03/06 06:04:48;;;;;;;4.28;2.87;;;-3.40;66.80;;;;;;4349918;32;20069;-58
2021/03/06 06:07:19;;;;;;;4.05;2.75;;;-3.10;67.90;;;;;;4362632;32;20070;-59
2021/03/06 06:09:46;;;;;;;7.65;3.25;;;-3.90;70.10;;;;;;4350299;32;20073;-58
2021/03/06 06:12:12;;;;;;;5.87;3.00;;;-4.80;74.90;;;;;;4338170;32;20070;-58
2021/03/06 06:14:39;;;;;;;3.85;2.40;;;-3.40;70.40;;;;;;4350402;32;20073;-59
2021/03/06 06:17:09;;;;;;;3.65;2.25;;;-3.10;67.60;;;;;;4362284;32;20565;-60
2021/03/06 06:19:37;;;;;;;3.35;2.22;;;-3.80;67.80;;;;;;4350373;32;20065;-58
2021/03/06 06:22:18;;;;;;;2.83;2.25;;;-4.50;72.70;;;;;;4351160;32;20076;-59
2021/03/06 06:24:49;;;;;;;4.15;2.40;;;-4.60;75.20;;;;;;4350619;32;20597;-58
2021/03/06 06:27:32;;;;;;;4.78;2.60;;;-4.60;75.80;;;;;;4350348;32;20092;-59
2021/03/06 06:30:00;;;;;;;3.25;2.40;;;-4.90;76.80;;;;;;4350463;32;20145;-58
2021/03/06 06:32:44;;;;;;;3.67;2.30;;;-4.80;76.80;;;;;;4359378;32;20074;-61
2021/03/06 06:35:15;;;;;;;5.72;3.12;;;-4.60;76.40;;;;;;4361904;32;20071;-58
2021/03/06 06:38:06;;;;;;;5.37;2.78;;;-4.40;75.10;;;;;;4329558;32;20534;-58
2021/03/06 06:40:35;;;;;;;4.30;2.90;;;-4.70;76.00;;;;;;4350629;32;20074;-58
2021/03/06 06:43:05;;;;;;;4.37;2.80;;;-4.20;75.30;;;;;;4338628;32;20142;-58
2021/03/06 06:45:40;;;;;;;7.32;2.97;;;-4.00;73.60;;;;;;4349138;32;20086;-63
2021/03/06 06:48:10;;;;;;;7.32;3.10;;;-4.20;74.60;;;;;;4345640;32;20074;-58
2021/03/06 06:50:36;;;;;;;5.97;3.50;;;-4.10;73.20;;;;;;4336973;32;20090;-60
2021/03/06 06:53:03;;;;;;;12.85;3.60;;;-3.40;72.00;;;;;;4326825;32;20059;-57
2021/03/06 06:55:41;;;;;;;7.72;3.28;;;-3.70;71.90;;;;;;4334809;32;20165;-58
2021/03/06 06:58:07;;;;;;;8.43;3.20;;;-3.80;72.70;;;;;;4365910;32;20081;-58
2021/03/06 07:00:34;;;;;;;5.20;2.75;;;-4.10;73.70;;;;;;4343333;32;20077;-57
2021/03/06 07:03:03;;;;;;;3.40;1.67;;;-3.70;72.90;;;;;;4340745;32;20070;-58
2021/03/06 07:05:40;;;;;;;5.90;3.00;;;-4.20;73.50;;;;;;4349264;32;20193;-59
2021/03/06 07:08:27;;;;;;;3.33;2.25;;;-3.80;74.20;;;;;;4337331;32;20070;-59
2021/03/06 07:10:53;;;;;;;3.72;2.35;;;-4.30;74.60;;;;;;4358778;32;20078;-58
2021/03/06 07:13:19;;;;;;;3.25;2.33;;;-3.80;73.50;;;;;;4349375;32;20077;-58
2021/03/06 07:15:53;;;;;;;4.12;2.30;;;-4.60;74.70;;;;;;4336766;32;20078;-58
2021/03/06 07:18:19;;;;;;;3.40;2.30;;;-4.40;75.60;;;;;;4336569;32;20519;-59
2021/03/06 07:20:46;;;;;;;3.12;2.15;;;-4.60;75.20;;;;;;4324407;32;20092;-58
2021/03/06 07:23:26;;;;;;;3.42;2.15;;;-4.60;76.10;;;;;;4312856;32;20062;-58
2021/03/06 07:25:54;;;;;;;3.17;2.30;;;-4.30;75.40;;;;;;4349194;32;20519;-59
2021/03/06 07:28:21;;;;;;;3.20;1.92;;;-3.90;73.70;;;;;;4337315;32;20062;-59
2021/03/06 07:30:48;;;;;;;3.53;2.60;;;-4.10;73.60;;;;;;4348847;32;20074;-59
2021/03/06 07:33:16;;;;;;;2.72;2.17;;;-3.70;73.60;;;;;;4333222;32;20062;-59
2021/03/06 07:35:44;;;;;;;4.53;2.67;;;-3.80;71.90;;;;;;4324781;32;20094;-58
2021/03/06 07:38:16;;;;;;;5.03;2.95;;;-4.00;73.70;;;;;;4347379;32;20526;-59
2021/03/06 07:40:56;;;;;;;2.80;2.17;;;-4.20;73.30;;;;;;4351998;32;20145;-58
2021/03/06 07:43:28;;;;;;;3.78;2.25;;;-4.60;74.00;;;;;;4355336;32;20070;-57
2021/03/06 07:45:56;;;;;;;2.92;1.92;;;-4.70;74.70;;;;;;4352230;32;20089;-57
2021/03/06 07:48:26;;;;;;;3.40;2.12;;;-4.00;73.40;;;;;;4343514;32;20518;-59
2021/03/06 07:50:52;;;;;;;3.33;2.30;;;-3.90;72.40;;;;;;4327365;32;20082;-59
2021/03/06 07:53:19;;;;;;;2.55;2.03;;;-3.60;71.50;;;;;;4339059;32;20066;-58
2021/03/06 07:55:47;;;;;;;2.37;1.90;;;-3.60;70.20;;;;;;4329897;32;20418;-57
2021/03/06 07:58:18;;;;;;;3.37;1.92;;;-3.60;70.10;;;;;;4354887;32;20071;-59
2021/03/06 08:00:53;;;;;;;4.00;2.55;;;-3.60;71.30;;;;;;4344889;32;20089;-58
2021/03/06 08:03:30;;;;;;;4.93;2.85;;;-3.60;71.40;;;;;;4332181;32;20155;-58
2021/03/06 08:05:58;;;;;;;3.55;2.30;;;-4.00;72.70;;;;;;4367561;32;20090;-59
2021/03/06 08:08:36;;;;;;;3.45;2.60;;;-4.10;74.00;;;;;;4367129;32;20070;-59
2021/03/06 08:11:15;;;;;;;4.45;2.58;;;-4.00;73.10;;;;;;4355546;32;20090;-57
2021/03/06 08:13:48;;;;;;;3.92;2.80;;;-4.40;73.50;;;;;;4355527;32;20097;-58
2021/03/06 08:16:23;;;;;;;5.25;3.55;;;-4.20;73.00;;;;;;4343175;32;20105;-58
2021/03/06 08:18:56;;;;;;;5.03;2.90;;;-4.20;72.70;;;;;;4340030;32;20153;-58
2021/03/06 08:21:34;;;;;;;4.57;2.53;;;-3.80;71.90;;;;;;4344846;32;20058;-59
2021/03/06 08:24:16;;;;;;;6.20;2.72;;;-3.80;71.30;;;;;;4342649;32;20105;-58
2021/03/06 08:26:57;;;;;;;4.20;3.22;;;-3.90;71.00;;;;;;4344311;32;20062;-58
2021/03/06 08:29:25;;;;;;;4.95;3.53;;;-3.80;70.30;;;;;;4368936;32;20145;-59
2021/03/06 08:32:01;;;;;;;8.38;3.92;;;-3.90;71.40;;;;;;4368401;32;20172;-63
2021/03/06 08:34:35;;;;;;;5.22;3.78;;;-3.60;70.40;;;;;;4341994;32;20070;-57
2021/03/06 08:37:21;;;;;;;5.87;2.95;;;-4.10;71.80;;;;;;4355074;32;20504;-59
2021/03/06 08:40:11;;;;;;;5.40;2.97;;;-3.60;72.10;;;;;;4368309;32;20440;-59
2021/03/06 08:42:43;;;;;;;5.20;3.15;;;-3.10;69.00;;;;;;4384136;32;20054;-57
2021/03/06 08:45:12;;;;;;;5.12;2.70;;;-3.90;70.60;;;;;;4382134;32;20085;-57
2021/03/06 08:48:01;;;;;;;3.08;2.30;;;-3.20;69.50;;;;;;4351918;32;20058;-58
2021/03/06 08:50:29;;;;;;;6.10;3.15;;;-3.80;68.90;;;;;;4363141;32;20082;-58
2021/03/06 08:53:03;;;;;;;6.65;2.80;;;-3.20;68.10;;;;;;4350948;32;20085;-58
2021/03/06 08:55:32;;;;;;;3.72;3.00;;;-2.50;65.20;;;;;;4363552;32;20081;-57
2021/03/06 08:58:03;;;;;;;4.78;3.25;;;-2.80;65.20;;;;;;4350704;32;20086;-58
2021/03/06 09:00:35;;;;;;;5.72;3.00;;;-3.20;67.10;;;;;;4338459;32;20126;-58
2021/03/06 09:03:26;;;;;;;5.75;3.00;;;-3.20;67.30;;;;;;4347479;32;20160;-57
2021/03/06 09:05:54;;;;;;;4.75;2.95;;;-3.50;68.80;;;;;;4339128;32;20101;-57
2021/03/06 09:08:21;;;;;;;4.07;2.80;;;-3.30;68.20;;;;;;4347756;32;20078;-57
2021/03/06 09:10:49;;;;;;;4.78;3.00;;;-3.40;69.70;;;;;;4335614;32;20453;-59
2021/03/06 09:13:18;;;;;;;4.60;2.42;;;-3.10;67.10;;;;;;4324191;32;20512;-59
2021/03/06 09:16:03;;;;;;;4.68;3.50;;;-2.60;66.30;;;;;;4348345;32;20093;-58
2021/03/06 09:18:31;;;;;;;6.15;3.65;;;-3.30;68.20;;;;;;4347741;32;20063;-58
2021/03/06 09:21:00;;;;;;;4.22;3.20;;;-3.80;70.10;;;;;;4348055;32;20066;-58
2021/03/06 09:23:38;;;;;;;4.78;3.20;;;-3.50;69.70;;;;;;4336397;32;20191;-58
2021/03/06 09:26:07;;;;;;;5.75;3.60;;;-3.60;71.50;;;;;;4363066;32;20082;-59
2021/03/06 09:28:34;;;;;;;6.10;3.47;;;-3.90;70.60;;;;;;4326470;32;20183;-58
2021/03/06 09:31:04;;;;;;;5.10;3.55;;;-3.40;70.00;;;;;;4312798;32;20073;-57
2021/03/06 09:33:34;;;;;;;4.93;2.97;;;-3.80;69.70;;;;;;4346654;32;20632;-59
2021/03/06 09:36:12;;;;;;;5.68;3.55;;;-3.60;70.00;;;;;;4351200;32;20166;-58
2021/03/06 09:38:58;;;;;;;5.95;3.30;;;-3.30;67.50;;;;;;4325260;32;20468;-58
2021/03/06 09:41:28;;;;;;;4.50;2.90;;;-2.50;66.00;;;;;;4324051;32;20078;-58
2021/03/06 09:43:59;;;;;;;5.90;3.40;;;-2.00;61.50;;;;;;4335669;32;20071;-57
2021/03/06 09:46:31;;;;;;;4.80;3.03;;;-2.20;62.20;;;;;;4324159;32;20442;-58
2021/03/06 09:49:03;;;;;;;5.70;3.53;;;-2.10;63.00;;;;;;4335970;32;20168;-58
2021/03/06 09:51:52;;;;;;;7.75;3.50;;;-1.60;59.80;;;;;;4312043;32;20082;-59
2021/03/06 09:54:21;;;;;;;5.80;3.65;;;-1.70;59.00;;;;;;4335257;32;20066;-59
2021/03/06 09:56:49;;;;;;;5.65;3.00;;;-2.70;64.40;;;;;;4324087;32;20081;-59
2021/03/06 09:59:15;;;;;;;3.65;2.70;;;-3.00;66.30;;;;;;4336303;32;20062;-59
2021/03/06 10:01:41;;;;;;;5.30;3.08;;;-3.10;66.50;;;;;;4335586;32;20071;-58
2021/03/06 10:04:21;;;;;;;5.78;3.40;;;-3.20;66.60;;;;;;4335096;32;20151;-59
2021/03/06 10:06:54;;;;;;;5.70;3.65;;;-3.30;65.90;;;;;;4336831;32;20064;-58
2021/03/06 10:09:22;;;;;;;4.65;3.60;;;-3.20;65.70;;;;;;4335978;32;20183;-59
2021/03/06 10:11:53;;;;;;;4.53;2.75;;;-2.90;65.00;;;;;;4323438;32;20086;-57
2021/03/06 10:14:24;;;;;;;5.03;3.42;;;-3.20;63.40;;;;;;4335355;32;20058;-60
2021/03/06 10:17:01;;;;;;;5.20;3.40;;;-3.20;65.00;;;;;;4335817;32;20075;-58
2021/03/06 10:19:33;;;;;;;7.87;3.50;;;-3.00;65.40;;;;;;4352721;32;20067;-59
2021/03/06 10:22:09;;;;;;;8.10;6.07;;;-2.70;62.90;;;;;;4341839;32;20081;-58
2021/03/06 10:25:03;;;;;;;6.95;4.60;;;-3.10;62.70;;;;;;4353024;32;20078;-58
2021/03/06 10:27:35;;;;;;;6.32;3.58;;;-2.90;62.80;;;;;;4347179;32;20081;-58
2021/03/06 10:30:18;;;;;;;4.45;3.12;;;-2.70;62.20;;;;;;4338564;32;20090;-58
2021/03/06 10:32:52;;;;;;;6.62;3.25;;;-2.50;61.20;;;;;;4346816;32;20124;-58
2021/03/06 10:35:56;;;;;;;7.40;3.70;;;-2.50;60.80;;;;;;4343317;32;20093;-59
2021/03/06 10:38:30;;;;;;;6.18;3.55;;;-2.70;61.80;;;;;;4288067;33;20113;-58
2021/03/06 10:41:03;;;;;;;5.95;3.62;;;-3.00;62.70;;;;;;4356168;32;20493;-58
2021/03/06 10:43:42;;;;;;;5.22;3.42;;;-2.70;60.90;;;;;;4352997;32;20059;-58
2021/03/06 10:46:25;;;;;;;6.32;3.40;;;-2.60;59.70;;;;;;4353316;32;20066;-58
2021/03/06 10:48:59;;;;;;;6.40;3.00;;;-2.00;59.20;;;;;;4340236;32;20075;-58
2021/03/06 10:51:51;;;;;;;4.40;3.37;;;-2.30;57.40;;;;;;4349969;32;20166;-59
2021/03/06 10:54:19;;;;;;;5.40;3.28;;;-2.40;58.90;;;;;;4355776;32;20078;-58
2021/03/06 10:56:45;;;;;;;4.95;3.50;;;-3.00;59.90;;;;;;4341412;32;20082;-58
2021/03/06 10:59:12;;;;;;;4.72;3.30;;;-2.60;58.40;;;;;;4325074;32;20055;-58
2021/03/06 11:01:50;;;;;;;8.73;5.03;;;-3.20;58.00;;;;;;4313021;32;20070;-59
2021/03/06 11:04:43;;;;;;;8.70;5.50;;;-3.00;58.90;;;;;;4325836;32;20525;-58
2021/03/06 11:07:09;;;;;;;6.85;3.12;;;-2.70;58.80;;;;;;4346680;32;20075;-58
2021/03/06 11:09:37;;;;;;;5.30;3.22;;;-2.80;56.30;;;;;;4324696;32;20535;-58
2021/03/06 11:12:20;;;;;;;4.40;3.10;;;-3.00;59.00;;;;;;4337579;32;20166;-58
2021/03/06 11:15:04;;;;;;;7.80;3.28;;;-2.90;58.80;;;;;;4338692;32;20081;-58
2021/03/06 11:17:30;;;;;;;3.65;2.60;;;-2.90;57.10;;;;;;4327263;32;20051;-58
2021/03/06 11:19:56;;;;;;;4.90;3.00;;;-3.00;56.90;;;;;;4349137;32;20145;-58
2021/03/06 11:22:22;;;;;;;3.12;2.70;;;-3.00;57.00;;;;;;4363448;32;20074;-58
2021/03/06 11:24:49;;;;;;;6.37;3.10;;;-2.80;57.10;;;;;;4374900;32;20094;-58
2021/03/06 11:27:15;;;;;;;4.75;2.80;;;-2.80;56.90;;;;;;4354307;32;20066;-59
2021/03/06 11:29:41;;;;;;;5.32;2.70;;;-3.10;58.20;;;;;;4350038;32;20528;-58
2021/03/06 11:32:07;;;;;;;4.95;2.62;;;-3.10;58.10;;;;;;4338392;32;20180;-59
2021/03/06 11:34:34;;;;;;;4.87;3.22;;;-2.90;56.90;;;;;;4325404;32;20075;-59
2021/03/06 11:37:00;;;;;;;4.40;2.92;;;-3.00;56.90;;;;;;4328788;32;20429;-58
2021/03/06 11:39:26;;;;;;;4.50;2.90;;;-3.30;57.30;;;;;;4365103;32;20149;-58
2021/03/06 11:41:52;;;;;;;4.80;2.85;;;-3.40;56.70;;;;;;4378649;32;20077;-58
2021/03/06 11:44:18;;;;;;;3.70;2.75;;;-3.30;57.90;;;;;;4366944;32;20582;-57
2021/03/06 11:46:45;;;;;;;4.15;2.78;;;-3.20;56.60;;;;;;4392777;32;20484;-58
2021/03/06 11:49:11;;;;;;;4.03;2.80;;;-3.00;56.20;;;;;;4332562;32;20079;-59
2021/03/06 11:51:37;;;;;;;4.07;2.55;;;-2.50;54.50;;;;;;4362849;32;20070;-58
2021/03/06 11:54:04;;;;;;;4.22;2.90;;;-2.90;53.70;;;;;;4349231;32;20073;-58
2021/03/06 11:56:30;;;;;;;5.10;2.80;;;-3.00;55.50;;;;;;4336383;32;20067;-58
2021/03/06 11:58:56;;;;;;;4.37;3.00;;;-2.90;57.40;;;;;;4336399;32;20083;-57
2021/03/06 12:01:23;;;;;;;3.78;2.50;;;-2.90;57.40;;;;;;4348754;32;20441;-58
2021/03/06 12:03:49;;;;;;;4.05;2.90;;;-3.20;56.30;;;;;;4356899;32;20082;-59
2021/03/06 12:06:15;;;;;;;4.32;2.70;;;-2.90;55.50;;;;;;4363352;32;20082;-58
2021/03/06 12:08:41;;;;;;;5.35;3.08;;;-3.20;56.60;;;;;;4361289;32;20067;-57
2021/03/06 12:11:08;;;;;;;3.45;2.67;;;-3.20;58.00;;;;;;4362800;32;20058;-59
2021/03/06 12:13:34;;;;;;;3.70;2.83;;;-3.20;56.70;;;;;;4362821;32;20078;-58
2021/03/06 12:16:01;;;;;;;4.62;2.95;;;-3.40;57.30;;;;;;4365753;32;20098;-58
2021/03/06 12:18:27;;;;;;;4.78;2.95;;;-3.20;58.40;;;;;;4354021;32;20114;-59
2021/03/06 12:20:53;;;;;;;4.12;2.97;;;-3.40;57.60;;;;;;4349461;32;20083;-59
2021/03/06 12:23:20;;;;;;;3.37;2.60;;;-3.50;57.60;;;;;;4324442;32;20081;-58
2021/03/06 12:25:46;;;;;;;3.72;2.65;;;-3.30;56.70;;;;;;4362101;32;20075;-59
2021/03/06 12:28:12;;;;;;;3.90;2.60;;;-3.40;55.60;;;;;;4359682;32;20070;-58
2021/03/06 12:30:39;;;;;;;5.15;3.20;;;-3.30;54.30;;;;;;4338144;32;20506;-59
2021/03/06 12:33:05;;;;;;;4.18;2.58;;;-3.20;54.50;;;;;;4337476;32;20094;-60
2021/03/06 12:35:31;;;;;;;3.85;2.47;;;-3.40;54.80;;;;;;4335726;32;20509;-59
2021/03/06 12:37:58;;;;;;;3.78;2.70;;;-3.50;55.60;;;;;;4345416;32;20166;-57
2021/03/06 12:40:24;;;;;;;4.60;2.55;;;-3.50;55.70;;;;;;4350361;32;20085;-58
2021/03/06 12:42:50;;;;;;;6.78;2.50;;;-3.30;54.30;;;;;;4350478;32;20075;-58
2021/03/06 12:45:17;;;;;;;3.55;2.62;;;-3.70;52.70;;;;;;4362805;32;20158;-59
2021/03/06 12:47:43;;;;;;;4.90;3.50;;;-3.30;54.30;;;;;;4346037;32;20171;-59
2021/03/06 12:50:10;;;;;;;4.20;2.78;;;-3.50;54.40;;;;;;4335365;32;20070;-58
2021/03/06 12:52:37;;;;;;;5.43;3.45;;;-3.50;53.10;;;;;;4336016;32;20086;-59
2021/03/06 12:55:05;;;;;;;5.60;2.90;;;-3.60;54.60;;;;;;4335579;32;20103;-57
2021/03/06 12:57:31;;;;;;;6.35;3.08;;;-3.30;53.30;;;;;;4335934;32;20221;-58
2021/03/06 12:59:57;;;;;;;5.25;3.53;;;-3.30;52.20;;;;;;4347447;32;20070;-58
2021/03/06 13:02:24;;;;;;;7.15;3.78;;;-3.50;55.00;;;;;;4347206;32;20506;-58
2021/03/06 13:04:50;;;;;;;7.70;4.07;;;-3.70;56.60;;;;;;4347904;32;20090;-59